sensor_id;sensor_type;location;lat;lon;timestamp;P1;durP1;ratioP1;P2;durP2;ratioP2
67248;SDS011;63247;54.300;18.592;2023-09-30T00:02:20;24.93;;;15.67;;
67248;SDS011;63247;54.300;18.592;2023-09-30T00:04:45;24.42;;;16.20;;
67248;SDS011;63247;54.300;18.592;2023-09-30T00:07:11;24.20;;;15.57;;
67248;SDS011;63247;54.300;18.592;2023-09-30T00:09:36;25.70;;;15.23;;
67248;SDS011;63247;54.300;18.592;2023-09-30T00:12:02;25.13;;;15.85;;
67248;SDS011;63247;54.300;18.592;2023-09-30T00:14:27;26.13;;;16.57;;
67248;SDS011;63247;54.300;18.592;2023-09-30T00:16:53;26.92;;;15.52;;
67248;SDS011;63247;54.300;18.592;2023-09-30T00:19:19;24.07;;;15.13;;
67248;SDS011;63247;54.300;18.592;2023-09-30T00:21:44;23.07;;;15.17;;
67248;SDS011;63247;54.300;18.592;2023-09-30T00:24:09;22.50;;;15.60;;
67248;SDS011;63247;54.300;18.592;2023-09-30T00:26:35;21.17;;;14.70;;
67248;SDS011;63247;54.300;18.592;2023-09-30T00:29:00;21.90;;;14.32;;
67248;SDS011;63247;54.300;18.592;2023-09-30T00:31:29;20.88;;;13.80;;
67248;SDS011;63247;54.300;18.592;2023-09-30T00:33:55;19.47;;;13.87;;
67248;SDS011;63247;54.300;18.592;2023-09-30T00:36:20;19.77;;;13.45;;
67248;SDS011;63247;54.300;18.592;2023-09-30T00:38:46;22.30;;;13.18;;
67248;SDS011;63247;54.300;18.592;2023-09-30T00:41:12;23.30;;;12.90;;
67248;SDS011;63247;54.300;18.592;2023-09-30T00:43:37;21.73;;;12.90;;
67248;SDS011;63247;54.300;18.592;2023-09-30T00:46:09;21.57;;;12.27;;
67248;SDS011;63247;54.300;18.592;2023-09-30T00:48:43;19.70;;;12.60;;
67248;SDS011;63247;54.300;18.592;2023-09-30T00:51:08;19.38;;;12.48;;
67248;SDS011;63247;54.300;18.592;2023-09-30T00:53:34;22.07;;;13.50;;
67248;SDS011;63247;54.300;18.592;2023-09-30T00:55:59;18.37;;;12.73;;
67248;SDS011;63247;54.300;18.592;2023-09-30T00:58:25;19.85;;;13.02;;
67248;SDS011;63247;54.300;18.592;2023-09-30T01:00:53;20.23;;;13.63;;
67248;SDS011;63247;54.300;18.592;2023-09-30T01:03:20;23.08;;;14.25;;
67248;SDS011;63247;54.300;18.592;2023-09-30T01:05:46;20.13;;;13.50;;
67248;SDS011;63247;54.300;18.592;2023-09-30T01:08:13;21.38;;;14.32;;
67248;SDS011;63247;54.300;18.592;2023-09-30T01:10:38;20.73;;;14.00;;
67248;SDS011;63247;54.300;18.592;2023-09-30T01:13:04;20.40;;;14.07;;
67248;SDS011;63247;54.300;18.592;2023-09-30T01:15:29;22.43;;;14.33;;
67248;SDS011;63247;54.300;18.592;2023-09-30T01:17:54;23.33;;;14.63;;
67248;SDS011;63247;54.300;18.592;2023-09-30T01:20:20;21.47;;;14.37;;
67248;SDS011;63247;54.300;18.592;2023-09-30T01:22:47;23.52;;;14.38;;
67248;SDS011;63247;54.300;18.592;2023-09-30T01:25:13;23.47;;;13.87;;
67248;SDS011;63247;54.300;18.592;2023-09-30T01:27:38;23.50;;;14.03;;
67248;SDS011;63247;54.300;18.592;2023-09-30T01:30:04;25.10;;;15.17;;
67248;SDS011;63247;54.300;18.592;2023-09-30T01:32:29;21.98;;;14.57;;
67248;SDS011;63247;54.300;18.592;2023-09-30T01:34:55;20.67;;;13.20;;
67248;SDS011;63247;54.300;18.592;2023-09-30T01:37:20;19.45;;;13.02;;
67248;SDS011;63247;54.300;18.592;2023-09-30T01:39:46;19.50;;;12.10;;
67248;SDS011;63247;54.300;18.592;2023-09-30T01:42:13;19.50;;;12.52;;
67248;SDS011;63247;54.300;18.592;2023-09-30T01:44:39;18.43;;;12.43;;
67248;SDS011;63247;54.300;18.592;2023-09-30T01:47:04;16.10;;;11.80;;
67248;SDS011;63247;54.300;18.592;2023-09-30T01:49:29;19.07;;;12.43;;
67248;SDS011;63247;54.300;18.592;2023-09-30T01:51:55;21.15;;;12.48;;
67248;SDS011;63247;54.300;18.592;2023-09-30T01:54:21;19.13;;;12.73;;
67248;SDS011;63247;54.300;18.592;2023-09-30T01:56:46;21.63;;;13.17;;
67248;SDS011;63247;54.300;18.592;2023-09-30T01:59:11;18.63;;;13.20;;
67248;SDS011;63247;54.300;18.592;2023-09-30T02:01:37;20.83;;;13.47;;
67248;SDS011;63247;54.300;18.592;2023-09-30T02:04:02;19.33;;;12.90;;
67248;SDS011;63247;54.300;18.592;2023-09-30T02:06:27;18.97;;;12.87;;
67248;SDS011;63247;54.300;18.592;2023-09-30T02:08:53;20.10;;;13.47;;
67248;SDS011;63247;54.300;18.592;2023-09-30T02:11:18;20.55;;;13.90;;
67248;SDS011;63247;54.300;18.592;2023-09-30T02:13:43;20.97;;;13.70;;
67248;SDS011;63247;54.300;18.592;2023-09-30T02:16:12;24.00;;;14.23;;
67248;SDS011;63247;54.300;18.592;2023-09-30T02:18:39;25.02;;;14.85;;
67248;SDS011;63247;54.300;18.592;2023-09-30T02:21:06;22.42;;;14.52;;
67248;SDS011;63247;54.300;18.592;2023-09-30T02:23:33;24.65;;;14.90;;
67248;SDS011;63247;54.300;18.592;2023-09-30T02:25:59;26.17;;;17.33;;
67248;SDS011;63247;54.300;18.592;2023-09-30T02:28:24;24.20;;;16.50;;
67248;SDS011;63247;54.300;18.592;2023-09-30T02:30:50;26.08;;;16.52;;
67248;SDS011;63247;54.300;18.592;2023-09-30T02:33:15;25.05;;;16.77;;
67248;SDS011;63247;54.300;18.592;2023-09-30T02:35:44;27.37;;;16.97;;
67248;SDS011;63247;54.300;18.592;2023-09-30T02:38:10;26.05;;;17.80;;
67248;SDS011;63247;54.300;18.592;2023-09-30T02:40:36;27.77;;;17.57;;
67248;SDS011;63247;54.300;18.592;2023-09-30T02:43:03;25.58;;;16.92;;
67248;SDS011;63247;54.300;18.592;2023-09-30T02:45:29;25.25;;;17.65;;
67248;SDS011;63247;54.300;18.592;2023-09-30T02:47:54;31.30;;;18.50;;
67248;SDS011;63247;54.300;18.592;2023-09-30T02:50:20;25.97;;;17.60;;
67248;SDS011;63247;54.300;18.592;2023-09-30T02:52:46;26.10;;;17.23;;
67248;SDS011;63247;54.300;18.592;2023-09-30T02:55:11;27.10;;;17.13;;
67248;SDS011;63247;54.300;18.592;2023-09-30T02:57:37;25.75;;;16.27;;
67248;SDS011;63247;54.300;18.592;2023-09-30T03:00:03;27.70;;;16.80;;
67248;SDS011;63247;54.300;18.592;2023-09-30T03:02:48;27.02;;;16.60;;
67248;SDS011;63247;54.300;18.592;2023-09-30T03:05:15;26.05;;;16.52;;
67248;SDS011;63247;54.300;18.592;2023-09-30T03:07:41;29.35;;;17.13;;
67248;SDS011;63247;54.300;18.592;2023-09-30T03:10:07;26.63;;;16.50;;
67248;SDS011;63247;54.300;18.592;2023-09-30T03:12:33;24.83;;;15.57;;
67248;SDS011;63247;54.300;18.592;2023-09-30T03:14:59;28.17;;;15.93;;
67248;SDS011;63247;54.300;18.592;2023-09-30T03:17:29;25.75;;;16.40;;
67248;SDS011;63247;54.300;18.592;2023-09-30T03:19:54;25.15;;;15.70;;
67248;SDS011;63247;54.300;18.592;2023-09-30T03:22:22;23.93;;;14.67;;
67248;SDS011;63247;54.300;18.592;2023-09-30T03:24:47;23.60;;;13.93;;
67248;SDS011;63247;54.300;18.592;2023-09-30T03:27:12;23.53;;;15.60;;
67248;SDS011;63247;54.300;18.592;2023-09-30T03:29:39;23.60;;;14.63;;
67248;SDS011;63247;54.300;18.592;2023-09-30T03:32:06;22.17;;;14.53;;
67248;SDS011;63247;54.300;18.592;2023-09-30T03:34:31;22.52;;;14.90;;
67248;SDS011;63247;54.300;18.592;2023-09-30T03:36:56;26.43;;;14.57;;
67248;SDS011;63247;54.300;18.592;2023-09-30T03:39:23;19.75;;;13.52;;
67248;SDS011;63247;54.300;18.592;2023-09-30T03:41:53;22.20;;;13.50;;
67248;SDS011;63247;54.300;18.592;2023-09-30T03:44:19;26.17;;;13.73;;
67248;SDS011;63247;54.300;18.592;2023-09-30T03:46:45;20.77;;;12.52;;
67248;SDS011;63247;54.300;18.592;2023-09-30T03:49:10;17.77;;;10.82;;
67248;SDS011;63247;54.300;18.592;2023-09-30T03:51:35;9.27;;;5.20;;
67248;SDS011;63247;54.300;18.592;2023-09-30T03:54:02;7.65;;;3.70;;
67248;SDS011;63247;54.300;18.592;2023-09-30T03:56:27;7.53;;;3.22;;
67248;SDS011;63247;54.300;18.592;2023-09-30T03:58:53;8.87;;;2.70;;
67248;SDS011;63247;54.300;18.592;2023-09-30T04:01:18;8.45;;;2.90;;
67248;SDS011;63247;54.300;18.592;2023-09-30T04:03:45;5.55;;;2.63;;
67248;SDS011;63247;54.300;18.592;2023-09-30T04:06:10;6.53;;;2.80;;
67248;SDS011;63247;54.300;18.592;2023-09-30T04:08:35;6.68;;;2.60;;
67248;SDS011;63247;54.300;18.592;2023-09-30T04:11:01;7.60;;;2.57;;
67248;SDS011;63247;54.300;18.592;2023-09-30T04:13:30;6.22;;;2.20;;
67248;SDS011;63247;54.300;18.592;2023-09-30T04:15:56;6.68;;;2.15;;
67248;SDS011;63247;54.300;18.592;2023-09-30T04:18:23;9.90;;;2.00;;
67248;SDS011;63247;54.300;18.592;2023-09-30T04:20:51;6.20;;;1.63;;
67248;SDS011;63247;54.300;18.592;2023-09-30T04:23:17;5.78;;;1.63;;
67248;SDS011;63247;54.300;18.592;2023-09-30T04:25:45;6.05;;;1.40;;
67248;SDS011;63247;54.300;18.592;2023-09-30T04:28:11;4.10;;;1.40;;
67248;SDS011;63247;54.300;18.592;2023-09-30T04:30:37;5.13;;;1.47;;
67248;SDS011;63247;54.300;18.592;2023-09-30T04:33:03;4.82;;;1.33;;
67248;SDS011;63247;54.300;18.592;2023-09-30T04:35:31;8.90;;;1.63;;
67248;SDS011;63247;54.300;18.592;2023-09-30T04:37:57;8.00;;;1.70;;
67248;SDS011;63247;54.300;18.592;2023-09-30T04:40:26;6.23;;;1.77;;
67248;SDS011;63247;54.300;18.592;2023-09-30T04:42:52;6.28;;;1.60;;
67248;SDS011;63247;54.300;18.592;2023-09-30T04:45:23;10.00;;;1.70;;
67248;SDS011;63247;54.300;18.592;2023-09-30T04:47:49;5.50;;;1.70;;
67248;SDS011;63247;54.300;18.592;2023-09-30T04:50:15;8.68;;;1.98;;
67248;SDS011;63247;54.300;18.592;2023-09-30T04:52:41;9.85;;;2.17;;
67248;SDS011;63247;54.300;18.592;2023-09-30T04:55:07;7.95;;;2.00;;
67248;SDS011;63247;54.300;18.592;2023-09-30T04:57:33;6.90;;;2.13;;
67248;SDS011;63247;54.300;18.592;2023-09-30T04:59:59;12.07;;;2.10;;
67248;SDS011;63247;54.300;18.592;2023-09-30T05:02:25;7.43;;;2.10;;
67248;SDS011;63247;54.300;18.592;2023-09-30T05:04:51;8.75;;;2.45;;
67248;SDS011;63247;54.300;18.592;2023-09-30T05:07:17;8.48;;;2.80;;
67248;SDS011;63247;54.300;18.592;2023-09-30T05:09:43;10.00;;;2.20;;
67248;SDS011;63247;54.300;18.592;2023-09-30T05:12:09;10.68;;;2.42;;
67248;SDS011;63247;54.300;18.592;2023-09-30T05:14:35;11.97;;;2.37;;
67248;SDS011;63247;54.300;18.592;2023-09-30T05:17:01;10.80;;;2.17;;
67248;SDS011;63247;54.300;18.592;2023-09-30T05:19:29;10.55;;;2.50;;
67248;SDS011;63247;54.300;18.592;2023-09-30T05:21:56;11.83;;;2.80;;
67248;SDS011;63247;54.300;18.592;2023-09-30T05:24:22;12.30;;;2.58;;
67248;SDS011;63247;54.300;18.592;2023-09-30T05:26:47;11.37;;;2.53;;
67248;SDS011;63247;54.300;18.592;2023-09-30T05:29:13;10.83;;;2.70;;
67248;SDS011;63247;54.300;18.592;2023-09-30T05:31:38;11.57;;;2.53;;
67248;SDS011;63247;54.300;18.592;2023-09-30T05:34:04;15.02;;;2.85;;
67248;SDS011;63247;54.300;18.592;2023-09-30T05:36:29;11.53;;;2.70;;
67248;SDS011;63247;54.300;18.592;2023-09-30T05:38:55;11.13;;;2.77;;
67248;SDS011;63247;54.300;18.592;2023-09-30T05:41:20;10.63;;;2.73;;
67248;SDS011;63247;54.300;18.592;2023-09-30T05:43:46;11.63;;;3.00;;
67248;SDS011;63247;54.300;18.592;2023-09-30T05:46:12;11.48;;;2.58;;
67248;SDS011;63247;54.300;18.592;2023-09-30T05:48:38;12.80;;;2.67;;
67248;SDS011;63247;54.300;18.592;2023-09-30T05:51:04;12.05;;;2.45;;
67248;SDS011;63247;54.300;18.592;2023-09-30T05:53:31;12.40;;;2.88;;
67248;SDS011;63247;54.300;18.592;2023-09-30T05:55:57;11.10;;;2.90;;
67248;SDS011;63247;54.300;18.592;2023-09-30T05:58:24;9.30;;;2.50;;
67248;SDS011;63247;54.300;18.592;2023-09-30T06:00:51;8.00;;;2.47;;
67248;SDS011;63247;54.300;18.592;2023-09-30T06:03:18;10.70;;;2.42;;
67248;SDS011;63247;54.300;18.592;2023-09-30T06:05:43;14.40;;;2.87;;
67248;SDS011;63247;54.300;18.592;2023-09-30T06:08:09;9.95;;;2.28;;
67248;SDS011;63247;54.300;18.592;2023-09-30T06:10:41;10.27;;;2.57;;
67248;SDS011;63247;54.300;18.592;2023-09-30T06:13:11;10.43;;;2.10;;
67248;SDS011;63247;54.300;18.592;2023-09-30T06:15:40;12.23;;;2.67;;
67248;SDS011;63247;54.300;18.592;2023-09-30T06:18:07;9.57;;;2.25;;
67248;SDS011;63247;54.300;18.592;2023-09-30T06:20:33;12.52;;;2.47;;
67248;SDS011;63247;54.300;18.592;2023-09-30T06:22:58;10.77;;;2.17;;
67248;SDS011;63247;54.300;18.592;2023-09-30T06:25:27;9.35;;;2.35;;
67248;SDS011;63247;54.300;18.592;2023-09-30T06:27:53;15.27;;;2.40;;
67248;SDS011;63247;54.300;18.592;2023-09-30T06:30:22;9.75;;;2.30;;
67248;SDS011;63247;54.300;18.592;2023-09-30T06:32:54;14.00;;;2.47;;
67248;SDS011;63247;54.300;18.592;2023-09-30T06:35:23;9.53;;;2.33;;
67248;SDS011;63247;54.300;18.592;2023-09-30T06:37:48;8.30;;;2.40;;
67248;SDS011;63247;54.300;18.592;2023-09-30T06:40:15;12.27;;;2.42;;
67248;SDS011;63247;54.300;18.592;2023-09-30T06:42:40;10.10;;;2.50;;
67248;SDS011;63247;54.300;18.592;2023-09-30T06:45:06;10.47;;;2.40;;
67248;SDS011;63247;54.300;18.592;2023-09-30T06:47:33;11.13;;;2.42;;
67248;SDS011;63247;54.300;18.592;2023-09-30T06:50:08;9.15;;;2.40;;
67248;SDS011;63247;54.300;18.592;2023-09-30T06:52:35;9.07;;;2.47;;
67248;SDS011;63247;54.300;18.592;2023-09-30T06:55:04;10.18;;;2.70;;
67248;SDS011;63247;54.300;18.592;2023-09-30T06:57:33;9.60;;;2.80;;
67248;SDS011;63247;54.300;18.592;2023-09-30T07:00:00;10.77;;;2.80;;
67248;SDS011;63247;54.300;18.592;2023-09-30T07:02:26;11.07;;;2.65;;
67248;SDS011;63247;54.300;18.592;2023-09-30T07:04:52;8.67;;;2.37;;
67248;SDS011;63247;54.300;18.592;2023-09-30T07:07:18;11.40;;;2.50;;
67248;SDS011;63247;54.300;18.592;2023-09-30T07:09:44;10.35;;;2.38;;
67248;SDS011;63247;54.300;18.592;2023-09-30T07:12:10;7.45;;;2.08;;
67248;SDS011;63247;54.300;18.592;2023-09-30T07:14:35;10.33;;;2.40;;
67248;SDS011;63247;54.300;18.592;2023-09-30T07:17:01;9.13;;;2.60;;
67248;SDS011;63247;54.300;18.592;2023-09-30T07:19:29;9.60;;;2.53;;
67248;SDS011;63247;54.300;18.592;2023-09-30T07:21:55;10.10;;;2.45;;
67248;SDS011;63247;54.300;18.592;2023-09-30T07:24:21;9.67;;;2.37;;
67248;SDS011;63247;54.300;18.592;2023-09-30T07:26:46;10.50;;;2.80;;
67248;SDS011;63247;54.300;18.592;2023-09-30T07:29:11;9.70;;;2.90;;
67248;SDS011;63247;54.300;18.592;2023-09-30T07:31:37;10.52;;;2.72;;
67248;SDS011;63247;54.300;18.592;2023-09-30T07:34:02;7.73;;;2.27;;
67248;SDS011;63247;54.300;18.592;2023-09-30T07:36:27;8.50;;;2.60;;
67248;SDS011;63247;54.300;18.592;2023-09-30T07:38:53;10.63;;;2.60;;
67248;SDS011;63247;54.300;18.592;2023-09-30T07:41:19;9.05;;;2.25;;
67248;SDS011;63247;54.300;18.592;2023-09-30T07:43:44;10.90;;;2.63;;
67248;SDS011;63247;54.300;18.592;2023-09-30T07:46:10;8.80;;;2.60;;
67248;SDS011;63247;54.300;18.592;2023-09-30T07:48:35;8.37;;;2.50;;
67248;SDS011;63247;54.300;18.592;2023-09-30T07:51:01;9.88;;;2.65;;
67248;SDS011;63247;54.300;18.592;2023-09-30T07:53:27;7.37;;;2.20;;
67248;SDS011;63247;54.300;18.592;2023-09-30T07:55:52;9.63;;;2.28;;
67248;SDS011;63247;54.300;18.592;2023-09-30T07:58:19;11.60;;;2.53;;
67248;SDS011;63247;54.300;18.592;2023-09-30T08:00:44;10.03;;;2.20;;
67248;SDS011;63247;54.300;18.592;2023-09-30T08:03:10;10.63;;;2.35;;
67248;SDS011;63247;54.300;18.592;2023-09-30T08:05:36;10.48;;;2.63;;
67248;SDS011;63247;54.300;18.592;2023-09-30T08:08:02;9.02;;;2.33;;
67248;SDS011;63247;54.300;18.592;2023-09-30T08:10:28;10.05;;;2.58;;
67248;SDS011;63247;54.300;18.592;2023-09-30T08:12:55;8.95;;;2.20;;
67248;SDS011;63247;54.300;18.592;2023-09-30T08:15:22;7.83;;;2.00;;
67248;SDS011;63247;54.300;18.592;2023-09-30T08:17:48;9.50;;;2.72;;
67248;SDS011;63247;54.300;18.592;2023-09-30T08:20:14;9.40;;;2.30;;
67248;SDS011;63247;54.300;18.592;2023-09-30T08:22:39;10.43;;;2.57;;
67248;SDS011;63247;54.300;18.592;2023-09-30T08:25:06;8.45;;;2.17;;
67248;SDS011;63247;54.300;18.592;2023-09-30T08:27:32;8.35;;;2.30;;
67248;SDS011;63247;54.300;18.592;2023-09-30T08:29:57;7.23;;;2.33;;
67248;SDS011;63247;54.300;18.592;2023-09-30T08:32:22;9.73;;;2.10;;
67248;SDS011;63247;54.300;18.592;2023-09-30T08:34:48;7.87;;;1.80;;
67248;SDS011;63247;54.300;18.592;2023-09-30T08:37:13;7.75;;;1.67;;
67248;SDS011;63247;54.300;18.592;2023-09-30T08:39:38;7.50;;;1.90;;
67248;SDS011;63247;54.300;18.592;2023-09-30T08:42:08;8.27;;;1.80;;
67248;SDS011;63247;54.300;18.592;2023-09-30T08:44:38;7.88;;;1.92;;
67248;SDS011;63247;54.300;18.592;2023-09-30T08:47:06;11.77;;;2.50;;
67248;SDS011;63247;54.300;18.592;2023-09-30T08:49:34;7.68;;;1.70;;
67248;SDS011;63247;54.300;18.592;2023-09-30T08:52:06;9.02;;;1.77;;
67248;SDS011;63247;54.300;18.592;2023-09-30T08:54:35;10.07;;;2.10;;
67248;SDS011;63247;54.300;18.592;2023-09-30T08:57:00;10.60;;;2.35;;
67248;SDS011;63247;54.300;18.592;2023-09-30T08:59:30;7.20;;;2.00;;
67248;SDS011;63247;54.300;18.592;2023-09-30T09:02:00;7.87;;;2.23;;
67248;SDS011;63247;54.300;18.592;2023-09-30T09:04:25;8.43;;;2.50;;
67248;SDS011;63247;54.300;18.592;2023-09-30T09:06:53;8.83;;;2.00;;
67248;SDS011;63247;54.300;18.592;2023-09-30T09:09:19;7.47;;;1.98;;
67248;SDS011;63247;54.300;18.592;2023-09-30T09:11:47;7.35;;;1.85;;
67248;SDS011;63247;54.300;18.592;2023-09-30T09:14:13;9.07;;;2.03;;
67248;SDS011;63247;54.300;18.592;2023-09-30T09:16:55;9.82;;;2.03;;
67248;SDS011;63247;54.300;18.592;2023-09-30T09:19:20;9.40;;;1.85;;
67248;SDS011;63247;54.300;18.592;2023-09-30T09:21:57;6.97;;;1.50;;
67248;SDS011;63247;54.300;18.592;2023-09-30T09:27:04;7.80;;;1.70;;
67248;SDS011;63247;54.300;18.592;2023-09-30T09:29:33;6.45;;;1.60;;
67248;SDS011;63247;54.300;18.592;2023-09-30T09:34:41;8.30;;;2.10;;
67248;SDS011;63247;54.300;18.592;2023-09-30T09:39:53;7.95;;;1.80;;
67248;SDS011;63247;54.300;18.592;2023-09-30T09:42:28;7.97;;;1.77;;
67248;SDS011;63247;54.300;18.592;2023-09-30T09:44:59;10.80;;;1.90;;
67248;SDS011;63247;54.300;18.592;2023-09-30T09:47:26;8.27;;;1.70;;
67248;SDS011;63247;54.300;18.592;2023-09-30T09:49:52;7.05;;;2.00;;
67248;SDS011;63247;54.300;18.592;2023-09-30T09:52:19;7.18;;;1.60;;
67248;SDS011;63247;54.300;18.592;2023-09-30T09:54:46;8.63;;;2.00;;
67248;SDS011;63247;54.300;18.592;2023-09-30T09:57:12;6.80;;;2.08;;
67248;SDS011;63247;54.300;18.592;2023-09-30T09:59:40;6.63;;;1.60;;
67248;SDS011;63247;54.300;18.592;2023-09-30T10:02:11;10.70;;;2.00;;
67248;SDS011;63247;54.300;18.592;2023-09-30T10:04:39;9.60;;;1.77;;
67248;SDS011;63247;54.300;18.592;2023-09-30T10:07:10;6.18;;;1.60;;
67248;SDS011;63247;54.300;18.592;2023-09-30T10:09:39;11.18;;;1.90;;
67248;SDS011;63247;54.300;18.592;2023-09-30T10:12:08;8.80;;;2.22;;
67248;SDS011;63247;54.300;18.592;2023-09-30T10:14:35;10.02;;;1.60;;
67248;SDS011;63247;54.300;18.592;2023-09-30T10:17:01;8.63;;;1.70;;
67248;SDS011;63247;54.300;18.592;2023-09-30T10:19:28;8.77;;;1.90;;
67248;SDS011;63247;54.300;18.592;2023-09-30T10:24:47;7.88;;;1.55;;
67248;SDS011;63247;54.300;18.592;2023-09-30T10:35:20;10.27;;;1.95;;
67248;SDS011;63247;54.300;18.592;2023-09-30T10:37:46;8.43;;;1.90;;
67248;SDS011;63247;54.300;18.592;2023-09-30T10:40:26;12.93;;;2.20;;
67248;SDS011;63247;54.300;18.592;2023-09-30T10:42:52;10.68;;;2.15;;
67248;SDS011;63247;54.300;18.592;2023-09-30T10:50:55;11.75;;;2.05;;
67248;SDS011;63247;54.300;18.592;2023-09-30T10:53:24;10.48;;;1.90;;
67248;SDS011;63247;54.300;18.592;2023-09-30T10:55:58;9.43;;;2.10;;
67248;SDS011;63247;54.300;18.592;2023-09-30T10:58:44;9.80;;;1.88;;
67248;SDS011;63247;54.300;18.592;2023-09-30T11:01:14;10.45;;;2.15;;
67248;SDS011;63247;54.300;18.592;2023-09-30T11:03:41;6.75;;;1.90;;
67248;SDS011;63247;54.300;18.592;2023-09-30T11:06:08;8.25;;;2.00;;
67248;SDS011;63247;54.300;18.592;2023-09-30T11:08:38;17.85;;;2.40;;
67248;SDS011;63247;54.300;18.592;2023-09-30T11:11:07;12.95;;;2.25;;
67248;SDS011;63247;54.300;18.592;2023-09-30T11:13:32;10.60;;;1.93;;
67248;SDS011;63247;54.300;18.592;2023-09-30T11:16:02;9.93;;;1.88;;
67248;SDS011;63247;54.300;18.592;2023-09-30T11:18:30;10.45;;;2.40;;
67248;SDS011;63247;54.300;18.592;2023-09-30T11:21:29;9.52;;;2.17;;
67248;SDS011;63247;54.300;18.592;2023-09-30T11:23:48;9.77;;;2.30;;
67248;SDS011;63247;54.300;18.592;2023-09-30T11:26:14;9.77;;;2.10;;
67248;SDS011;63247;54.300;18.592;2023-09-30T11:28:41;10.97;;;2.20;;
67248;SDS011;63247;54.300;18.592;2023-09-30T11:31:10;12.63;;;2.55;;
67248;SDS011;63247;54.300;18.592;2023-09-30T11:33:51;13.75;;;2.50;;
67248;SDS011;63247;54.300;18.592;2023-09-30T11:36:18;8.85;;;2.38;;
67248;SDS011;63247;54.300;18.592;2023-09-30T11:38:45;8.73;;;1.95;;
67248;SDS011;63247;54.300;18.592;2023-09-30T11:41:12;7.78;;;1.85;;
67248;SDS011;63247;54.300;18.592;2023-09-30T11:43:38;9.00;;;2.15;;
67248;SDS011;63247;54.300;18.592;2023-09-30T11:46:23;7.95;;;1.90;;
67248;SDS011;63247;54.300;18.592;2023-09-30T11:49:04;9.35;;;2.33;;
67248;SDS011;63247;54.300;18.592;2023-09-30T11:51:42;10.90;;;2.10;;
67248;SDS011;63247;54.300;18.592;2023-09-30T11:54:11;9.25;;;1.73;;
67248;SDS011;63247;54.300;18.592;2023-09-30T11:56:36;9.90;;;1.85;;
67248;SDS011;63247;54.300;18.592;2023-09-30T11:59:02;8.68;;;1.85;;
67248;SDS011;63247;54.300;18.592;2023-09-30T12:01:29;11.60;;;2.08;;
67248;SDS011;63247;54.300;18.592;2023-09-30T12:03:55;9.40;;;1.95;;
67248;SDS011;63247;54.300;18.592;2023-09-30T12:06:21;11.83;;;1.77;;
67248;SDS011;63247;54.300;18.592;2023-09-30T12:08:46;6.07;;;1.67;;
67248;SDS011;63247;54.300;18.592;2023-09-30T12:11:12;8.93;;;1.60;;
67248;SDS011;63247;54.300;18.592;2023-09-30T12:13:40;10.57;;;2.00;;
67248;SDS011;63247;54.300;18.592;2023-09-30T12:16:06;7.75;;;1.80;;
67248;SDS011;63247;54.300;18.592;2023-09-30T12:18:32;9.52;;;1.92;;
67248;SDS011;63247;54.300;18.592;2023-09-30T12:20:57;10.10;;;2.00;;
67248;SDS011;63247;54.300;18.592;2023-09-30T12:23:22;8.77;;;1.90;;
67248;SDS011;63247;54.300;18.592;2023-09-30T12:25:48;10.48;;;1.77;;
67248;SDS011;63247;54.300;18.592;2023-09-30T12:28:14;7.17;;;1.73;;
67248;SDS011;63247;54.300;18.592;2023-09-30T12:30:40;11.88;;;1.95;;
67248;SDS011;63247;54.300;18.592;2023-09-30T12:33:06;7.32;;;1.80;;
67248;SDS011;63247;54.300;18.592;2023-09-30T12:35:32;8.00;;;1.80;;
67248;SDS011;63247;54.300;18.592;2023-09-30T12:37:58;9.53;;;2.03;;
67248;SDS011;63247;54.300;18.592;2023-09-30T12:40:24;10.23;;;2.00;;
67248;SDS011;63247;54.300;18.592;2023-09-30T12:42:49;12.03;;;2.10;;
67248;SDS011;63247;54.300;18.592;2023-09-30T12:45:14;17.97;;;2.30;;
67248;SDS011;63247;54.300;18.592;2023-09-30T12:47:41;9.52;;;2.03;;
67248;SDS011;63247;54.300;18.592;2023-09-30T12:50:07;7.43;;;1.57;;
67248;SDS011;63247;54.300;18.592;2023-09-30T12:52:34;8.95;;;1.70;;
67248;SDS011;63247;54.300;18.592;2023-09-30T12:54:59;12.70;;;1.83;;
67248;SDS011;63247;54.300;18.592;2023-09-30T12:57:25;12.67;;;2.00;;
67248;SDS011;63247;54.300;18.592;2023-09-30T12:59:50;11.57;;;1.80;;
67248;SDS011;63247;54.300;18.592;2023-09-30T13:02:16;9.82;;;1.83;;
67248;SDS011;63247;54.300;18.592;2023-09-30T13:04:43;10.15;;;2.03;;
67248;SDS011;63247;54.300;18.592;2023-09-30T13:07:09;9.07;;;1.80;;
67248;SDS011;63247;54.300;18.592;2023-09-30T13:09:35;8.55;;;1.90;;
67248;SDS011;63247;54.300;18.592;2023-09-30T13:12:04;10.45;;;1.90;;
67248;SDS011;63247;54.300;18.592;2023-09-30T13:14:30;11.35;;;2.10;;
67248;SDS011;63247;54.300;18.592;2023-09-30T13:16:55;9.00;;;1.92;;
67248;SDS011;63247;54.300;18.592;2023-09-30T13:19:20;11.00;;;2.23;;
67248;SDS011;63247;54.300;18.592;2023-09-30T13:21:46;9.77;;;2.07;;
67248;SDS011;63247;54.300;18.592;2023-09-30T13:24:24;11.70;;;1.95;;
67248;SDS011;63247;54.300;18.592;2023-09-30T13:26:49;8.65;;;1.88;;
67248;SDS011;63247;54.300;18.592;2023-09-30T13:29:17;14.63;;;2.22;;
67248;SDS011;63247;54.300;18.592;2023-09-30T13:31:43;9.55;;;1.90;;
67248;SDS011;63247;54.300;18.592;2023-09-30T13:34:10;8.73;;;2.08;;
67248;SDS011;63247;54.300;18.592;2023-09-30T13:36:37;9.23;;;2.08;;
67248;SDS011;63247;54.300;18.592;2023-09-30T13:39:02;11.07;;;2.10;;
67248;SDS011;63247;54.300;18.592;2023-09-30T13:41:30;10.95;;;1.90;;
67248;SDS011;63247;54.300;18.592;2023-09-30T13:43:58;12.55;;;2.20;;
67248;SDS011;63247;54.300;18.592;2023-09-30T13:46:23;15.13;;;2.33;;
67248;SDS011;63247;54.300;18.592;2023-09-30T13:48:51;14.07;;;2.03;;
67248;SDS011;63247;54.300;18.592;2023-09-30T13:51:17;10.50;;;2.22;;
67248;SDS011;63247;54.300;18.592;2023-09-30T13:53:43;11.87;;;1.93;;
67248;SDS011;63247;54.300;18.592;2023-09-30T13:56:08;10.00;;;1.87;;
67248;SDS011;63247;54.300;18.592;2023-09-30T13:58:35;11.20;;;2.13;;
67248;SDS011;63247;54.300;18.592;2023-09-30T14:01:01;7.93;;;1.65;;
67248;SDS011;63247;54.300;18.592;2023-09-30T14:03:26;9.33;;;2.10;;
67248;SDS011;63247;54.300;18.592;2023-09-30T14:05:51;7.53;;;1.70;;
67248;SDS011;63247;54.300;18.592;2023-09-30T14:08:18;8.27;;;1.90;;
67248;SDS011;63247;54.300;18.592;2023-09-30T14:10:44;12.43;;;1.60;;
67248;SDS011;63247;54.300;18.592;2023-09-30T14:13:09;11.80;;;2.20;;
67248;SDS011;63247;54.300;18.592;2023-09-30T14:15:35;10.68;;;2.42;;
67248;SDS011;63247;54.300;18.592;2023-09-30T14:18:01;7.13;;;1.60;;
67248;SDS011;63247;54.300;18.592;2023-09-30T14:20:27;9.10;;;1.98;;
67248;SDS011;63247;54.300;18.592;2023-09-30T14:22:52;11.03;;;1.73;;
67248;SDS011;63247;54.300;18.592;2023-09-30T14:25:20;12.35;;;2.42;;
67248;SDS011;63247;54.300;18.592;2023-09-30T14:27:46;10.33;;;2.07;;
67248;SDS011;63247;54.300;18.592;2023-09-30T14:30:12;9.10;;;2.03;;
67248;SDS011;63247;54.300;18.592;2023-09-30T14:32:38;9.33;;;1.90;;
67248;SDS011;63247;54.300;18.592;2023-09-30T14:35:03;14.00;;;2.22;;
67248;SDS011;63247;54.300;18.592;2023-09-30T14:37:30;9.85;;;1.88;;
67248;SDS011;63247;54.300;18.592;2023-09-30T14:39:56;8.65;;;1.83;;
67248;SDS011;63247;54.300;18.592;2023-09-30T14:42:21;9.83;;;1.77;;
67248;SDS011;63247;54.300;18.592;2023-09-30T14:44:47;8.73;;;2.00;;
67248;SDS011;63247;54.300;18.592;2023-09-30T14:47:12;11.40;;;1.97;;